createdAt,value
2023-04-18T00:00:16.755Z,29.438
2023-04-18T00:05:16.478Z,29.440
2023-04-18T00:10:16.616Z,29.448
2023-04-18T00:15:16.828Z,29.450
2023-04-18T00:20:16.556Z,29.450
2023-04-18T00:25:16.606Z,29.454
2023-04-18T00:30:17.351Z,29.457
2023-04-18T00:35:16.589Z,29.458
2023-04-18T00:40:16.588Z,29.456
2023-04-18T00:45:17.330Z,29.456
2023-04-18T00:50:16.905Z,29.459
2023-04-18T00:55:16.737Z,29.466
2023-04-18T01:00:17.251Z,29.465
2023-04-18T01:05:17.267Z,29.463
2023-04-18T01:10:16.701Z,29.460
2023-04-18T01:15:17.164Z,29.459
2023-04-18T01:20:16.996Z,29.462
2023-04-18T01:25:16.908Z,29.461
2023-04-18T01:35:17.285Z,29.463
2023-04-18T01:40:16.730Z,29.463
2023-04-18T01:45:17.052Z,29.463
2023-04-18T01:50:16.963Z,29.465
2023-04-18T01:55:16.820Z,29.458
2023-04-18T02:00:17.608Z,29.460
2023-04-18T02:05:16.888Z,29.467
2023-04-18T02:10:17.327Z,29.465
2023-04-18T02:15:17.386Z,29.469
2023-04-18T02:20:17.211Z,29.472
2023-04-18T02:25:17.034Z,29.473
2023-04-18T02:30:17.145Z,29.471
2023-04-18T02:35:17.084Z,29.472
2023-04-18T02:40:17.270Z,29.472
2023-04-18T02:45:17.338Z,29.479
2023-04-18T02:50:17.190Z,29.480
2023-04-18T02:55:17.227Z,29.484
2023-04-18T03:00:17.246Z,29.488
2023-04-18T03:05:17.303Z,29.485
2023-04-18T03:10:17.199Z,29.483
2023-04-18T03:15:17.810Z,29.485
2023-04-18T03:20:17.204Z,29.487
2023-04-18T03:25:17.172Z,29.486
2023-04-18T03:30:17.316Z,29.485
2023-04-18T03:35:17.285Z,29.486
2023-04-18T03:40:17.329Z,29.492
2023-04-18T03:45:17.533Z,29.492
2023-04-18T03:50:17.476Z,29.490
2023-04-18T03:55:17.291Z,29.491
2023-04-18T04:00:18.284Z,29.494
2023-04-18T04:05:18.604Z,29.487
2023-04-18T04:10:18.302Z,29.488
2023-04-18T04:15:18.806Z,29.489
2023-04-18T04:20:18.461Z,29.491
2023-04-18T04:25:18.528Z,29.494
2023-04-18T04:30:18.556Z,29.495
2023-04-18T04:35:18.265Z,29.495
2023-04-18T04:40:18.431Z,29.496
2023-04-18T04:45:18.529Z,29.498
2023-04-18T04:50:18.462Z,29.498
2023-04-18T04:55:18.604Z,29.500
2023-04-18T05:00:18.481Z,29.501
2023-04-18T05:05:18.508Z,29.498
2023-04-18T05:10:18.445Z,29.498
2023-04-18T05:15:18.445Z,29.499
2023-04-18T05:20:18.549Z,29.499
2023-04-18T05:25:18.391Z,29.501
2023-04-18T05:30:16.944Z,29.498
2023-04-18T05:35:16.418Z,29.496
2023-04-18T05:40:16.242Z,29.497
2023-04-18T05:45:16.507Z,29.496
2023-04-18T05:50:16.274Z,29.497
2023-04-18T05:55:16.693Z,29.497
2023-04-18T06:00:16.509Z,29.498
2023-04-18T06:05:16.846Z,29.498
2023-04-18T06:10:16.339Z,29.495
2023-04-18T06:15:16.972Z,29.495
2023-04-18T06:20:16.427Z,29.493
2023-04-18T06:25:16.363Z,29.491
2023-04-18T06:30:16.605Z,29.488
2023-04-18T06:35:16.414Z,29.489
2023-04-18T06:40:16.614Z,29.486
2023-04-18T06:45:16.838Z,29.487
2023-04-18T06:50:16.516Z,29.489
2023-04-18T06:55:16.435Z,29.492
2023-04-18T07:00:16.575Z,29.488
2023-04-18T07:05:16.674Z,29.486
2023-04-18T07:10:17.141Z,29.489
2023-04-18T07:15:18.108Z,29.493
2023-04-18T07:20:16.765Z,29.494
2023-04-18T07:25:16.443Z,29.492
2023-04-18T07:30:16.890Z,29.495
2023-04-18T07:35:16.478Z,29.499
2023-04-18T07:40:19.040Z,29.502
2023-04-18T07:45:16.987Z,29.504
2023-04-18T07:50:17.054Z,29.501
2023-04-18T07:55:17.085Z,29.497
2023-04-18T08:00:17.495Z,29.495
2023-04-18T08:05:16.809Z,29.491
2023-04-18T08:10:17.256Z,29.491
2023-04-18T08:15:17.256Z,29.495
2023-04-18T08:20:16.998Z,29.495
2023-04-18T08:25:17.035Z,29.499
2023-04-18T08:30:17.008Z,29.498
2023-04-18T08:35:17.068Z,29.495
2023-04-18T08:40:17.154Z,29.496
2023-04-18T08:45:17.116Z,29.493
2023-04-18T08:50:17.251Z,29.495
2023-04-18T08:55:16.840Z,29.495
2023-04-18T09:00:17.209Z,29.494
2023-04-18T09:05:17.059Z,29.491
2023-04-18T09:10:16.907Z,29.489
2023-04-18T09:15:17.682Z,29.492
2023-04-18T09:20:17.390Z,29.494
2023-04-18T09:25:17.246Z,29.492
2023-04-18T09:30:17.284Z,29.494
2023-04-18T09:35:17.030Z,29.493
2023-04-18T09:40:17.161Z,29.488
2023-04-18T09:45:17.272Z,29.488
2023-04-18T09:50:17.135Z,29.489
2023-04-18T09:55:17.059Z,29.493
2023-04-18T10:00:17.618Z,29.496
2023-04-18T10:05:19.537Z,29.499
2023-04-18T10:10:17.238Z,29.499
2023-04-18T10:15:17.684Z,29.501
2023-04-18T10:20:17.451Z,29.504
2023-04-18T10:25:17.521Z,29.507
2023-04-18T10:30:17.681Z,29.505
2023-04-18T10:35:17.381Z,29.502
2023-04-18T10:40:17.307Z,29.501
2023-04-18T10:45:17.313Z,29.503
2023-04-18T10:50:17.278Z,29.507
2023-04-18T10:55:17.360Z,29.507
2023-04-18T11:00:17.532Z,29.507
2023-04-18T11:05:17.632Z,29.507
2023-04-18T11:10:17.525Z,29.505
2023-04-18T11:15:17.447Z,29.508
2023-04-18T11:20:17.368Z,29.512
2023-04-18T11:25:17.534Z,29.513
2023-04-18T11:30:17.477Z,29.511
2023-04-18T11:35:17.631Z,29.511
2023-04-18T11:40:17.447Z,29.514
2023-04-18T11:45:18.092Z,29.516
2023-04-18T11:50:17.523Z,29.518
2023-04-18T11:55:17.890Z,29.519
2023-04-18T12:00:17.583Z,29.524
2023-04-18T12:05:17.887Z,29.524
2023-04-18T12:10:17.668Z,29.519
2023-04-18T12:15:17.820Z,29.518
2023-04-18T12:20:17.596Z,29.515
2023-04-18T12:25:17.569Z,29.517
2023-04-18T12:30:17.713Z,29.519
2023-04-18T12:35:17.769Z,29.515
2023-04-18T12:40:17.615Z,29.514
2023-04-18T12:45:18.043Z,29.516
2023-04-18T12:50:17.586Z,29.514
2023-04-18T12:55:17.771Z,29.511
2023-04-18T13:00:18.447Z,29.510
2023-04-18T13:05:17.659Z,29.512
2023-04-18T13:10:17.722Z,29.513
2023-04-18T13:15:17.920Z,29.511
2023-04-18T13:20:18.115Z,29.512
2023-04-18T13:25:17.874Z,29.515
2023-04-18T13:30:18.055Z,29.516
2023-04-18T13:35:17.743Z,29.521
2023-04-18T13:40:17.834Z,29.520
2023-04-18T13:45:18.037Z,29.518
2023-04-18T13:50:17.701Z,29.519
2023-04-18T13:55:18.123Z,29.518
2023-04-18T14:00:18.041Z,29.519
2023-04-18T14:05:17.961Z,29.520
2023-04-18T14:10:17.744Z,29.523
2023-04-18T14:15:18.374Z,29.524
2023-04-18T14:20:17.785Z,29.525
2023-04-18T14:25:17.811Z,29.526
2023-04-18T14:30:17.907Z,29.532
2023-04-18T14:35:17.840Z,29.530
2023-04-18T14:40:17.959Z,29.530
2023-04-18T14:45:18.315Z,29.532
2023-04-18T14:50:17.813Z,29.529
2023-04-18T14:55:18.120Z,29.529
2023-04-18T15:00:18.038Z,29.532
2023-04-18T15:05:17.776Z,29.533
2023-04-18T15:10:17.753Z,29.532
2023-04-18T15:15:18.219Z,29.532
2023-04-18T15:20:17.851Z,29.533
2023-04-18T15:25:17.973Z,29.535
2023-04-18T15:30:18.307Z,29.532
2023-04-18T15:35:17.803Z,29.533
2023-04-18T15:40:17.974Z,29.531
2023-04-18T15:45:17.885Z,29.534
2023-04-18T15:50:18.068Z,29.538
2023-04-18T15:55:18.030Z,29.539
2023-04-18T16:00:18.119Z,29.541
2023-04-18T16:05:18.105Z,29.542
2023-04-18T16:10:17.952Z,29.541
2023-04-18T16:15:18.113Z,29.543
2023-04-18T16:20:18.274Z,29.544
2023-04-18T16:25:18.350Z,29.543
2023-04-18T16:30:18.137Z,29.549
2023-04-18T16:35:17.997Z,29.546
2023-04-18T16:40:18.155Z,29.548
2023-04-18T16:45:18.400Z,29.546
2023-04-18T16:50:18.116Z,29.550
2023-04-18T16:55:18.275Z,29.548
2023-04-18T17:00:18.123Z,29.549
2023-04-18T17:05:18.138Z,29.547
2023-04-18T17:10:18.146Z,29.550
2023-04-18T17:15:18.339Z,29.552
2023-04-18T17:20:18.288Z,29.555
2023-04-18T17:25:18.271Z,29.554
2023-04-18T17:30:18.480Z,29.555
2023-04-18T17:35:18.068Z,29.556
2023-04-18T17:40:18.235Z,29.558
2023-04-18T17:45:18.241Z,29.559
2023-04-18T17:50:18.457Z,29.563
2023-04-18T17:55:18.428Z,29.564
2023-04-18T18:00:18.561Z,29.564
2023-04-18T18:05:18.349Z,29.564
2023-04-18T18:10:18.352Z,29.561
2023-04-18T18:15:18.371Z,29.561
2023-04-18T18:20:18.425Z,29.559
2023-04-18T18:25:18.495Z,29.562
2023-04-18T18:30:18.691Z,29.565
2023-04-18T18:35:18.601Z,29.565
2023-04-18T18:40:18.306Z,29.567
2023-04-18T18:45:18.399Z,29.566
2023-04-18T18:50:18.359Z,29.565
2023-04-18T18:55:18.233Z,29.566
2023-04-18T19:00:18.567Z,29.568
2023-04-18T19:05:18.418Z,29.568
2023-04-18T19:10:18.615Z,29.570
2023-04-18T19:15:18.818Z,29.568
2023-04-18T19:20:18.761Z,29.569
2023-04-18T19:25:18.558Z,29.565
2023-04-18T19:30:18.781Z,29.564
2023-04-18T19:35:18.525Z,29.567
2023-04-18T19:40:18.436Z,29.566
2023-04-18T19:45:18.797Z,29.568
2023-04-18T19:50:16.313Z,29.568
2023-04-18T19:55:16.172Z,29.572
2023-04-18T20:00:16.366Z,29.575
2023-04-18T20:05:16.474Z,29.577
2023-04-18T20:10:16.217Z,29.577
2023-04-18T20:15:16.354Z,29.579
2023-04-18T20:20:16.729Z,29.579
2023-04-18T20:25:16.347Z,29.581
2023-04-18T20:30:17.243Z,29.582
2023-04-18T20:35:16.484Z,29.582
2023-04-18T20:40:16.351Z,29.583
2023-04-18T20:45:16.808Z,29.587
2023-04-18T20:50:16.392Z,29.588
2023-04-18T20:55:16.614Z,29.588
2023-04-18T21:00:16.418Z,29.588
2023-04-18T21:05:16.359Z,29.591
2023-04-18T21:10:16.486Z,29.592
2023-04-18T21:15:16.675Z,29.594
2023-04-18T21:20:16.397Z,29.594
2023-04-18T21:25:16.468Z,29.597
2023-04-18T21:30:18.664Z,29.599
2023-04-18T21:35:19.827Z,29.597
2023-04-18T21:40:17.801Z,29.598
2023-04-18T21:45:18.840Z,29.600
2023-04-18T21:50:17.949Z,29.601
2023-04-18T21:55:17.935Z,29.605
2023-04-18T22:00:17.999Z,29.605
2023-04-18T22:05:18.029Z,29.605
2023-04-18T22:10:17.939Z,29.607
2023-04-18T22:15:17.938Z,29.609
2023-04-18T22:20:17.962Z,29.611
2023-04-18T22:25:17.864Z,29.613
2023-04-18T22:30:17.939Z,29.615
2023-04-18T22:35:18.134Z,29.617
2023-04-18T22:40:18.186Z,29.619
2023-04-18T22:45:17.985Z,29.622
2023-04-18T22:50:18.181Z,29.626
2023-04-18T22:55:18.117Z,29.629
2023-04-18T23:00:18.152Z,29.632
2023-04-18T23:05:18.178Z,29.635
2023-04-18T23:10:18.031Z,29.636
2023-04-18T23:15:18.305Z,29.639
2023-04-18T23:20:18.058Z,29.644
2023-04-18T23:25:18.069Z,29.645
2023-04-18T23:30:17.999Z,29.648
2023-04-18T23:35:17.979Z,29.650
2023-04-18T23:40:18.089Z,29.650
2023-04-18T23:45:18.099Z,29.654
2023-04-18T23:50:18.493Z,29.657
2023-04-18T23:55:18.311Z,29.661
